createdAt,value
2018-04-11T00:03:51.584Z,19.80
2018-04-11T00:08:42.505Z,19.60
2018-04-11T00:13:33.412Z,21.00
2018-04-11T00:18:24.313Z,20.90
2018-04-11T00:23:15.281Z,20.00
2018-04-11T00:28:06.185Z,20.23
2018-04-11T00:32:57.082Z,20.27
2018-04-11T00:37:48.725Z,19.93
2018-04-11T00:42:40.377Z,18.90
2018-04-11T00:47:32.014Z,23.00
2018-04-11T00:52:23.661Z,19.90
2018-04-11T00:57:15.292Z,19.03
2018-04-11T01:02:06.172Z,20.00
2018-04-11T01:06:57.060Z,21.60
2018-04-11T01:11:48.740Z,20.93
2018-04-11T01:16:39.628Z,21.37
2018-04-11T01:21:31.265Z,21.00
2018-04-11T01:26:22.911Z,23.17
2018-04-11T01:31:14.555Z,20.03
2018-04-11T01:36:06.179Z,22.60
2018-04-11T01:40:57.072Z,20.73
2018-04-11T01:45:47.965Z,21.20
2018-04-11T01:50:39.649Z,21.43
2018-04-11T01:55:30.576Z,21.90
2018-04-11T02:00:21.459Z,21.33
2018-04-11T02:05:12.365Z,22.00
2018-04-11T02:10:03.248Z,22.93
2018-04-11T02:14:54.150Z,24.50
2018-04-11T02:19:45.779Z,22.87
2018-04-11T02:24:37.486Z,21.40
2018-04-11T02:29:28.376Z,24.10
2018-04-11T02:34:20.048Z,23.20
2018-04-11T02:39:10.931Z,23.13
2018-04-11T02:44:02.692Z,24.47
2018-04-11T02:48:54.329Z,25.90
2018-04-11T02:53:45.947Z,26.60
2018-04-11T02:58:36.953Z,24.47
2018-04-11T03:03:27.852Z,24.70
2018-04-11T03:08:18.732Z,23.93
2018-04-11T03:13:09.624Z,24.20
2018-04-11T03:18:00.562Z,26.00
2018-04-11T03:22:51.453Z,26.30
2018-04-11T03:27:43.071Z,24.30
2018-04-11T03:32:33.992Z,25.30
2018-04-11T03:37:24.875Z,27.10
2018-04-11T03:42:16.503Z,26.47
2018-04-11T03:47:07.395Z,26.90
2018-04-11T03:51:58.274Z,26.67
2018-04-11T03:56:49.172Z,28.10
2018-04-11T04:01:40.092Z,26.00
2018-04-11T04:06:31.692Z,26.60
2018-04-11T04:11:23.329Z,28.23
2018-04-11T04:16:27.496Z,26.90
2018-04-11T04:21:18.398Z,26.83
2018-04-11T04:26:09.330Z,28.00
2018-04-11T04:31:00.220Z,26.63
2018-04-11T04:35:51.207Z,27.73
2018-04-11T04:40:42.111Z,25.60
2018-04-11T04:45:33.764Z,25.43
2018-04-11T04:50:25.451Z,25.50
2018-04-11T04:55:16.339Z,26.53
2018-04-11T05:00:07.995Z,24.77
2018-04-11T05:04:58.964Z,25.23
2018-04-11T05:09:49.864Z,26.23
2018-04-11T05:14:40.808Z,26.47
2018-04-11T05:19:31.742Z,24.30
2018-04-11T05:24:22.665Z,24.57
2018-04-11T05:29:13.568Z,23.97
2018-04-11T05:34:04.455Z,25.00
2018-04-11T05:38:55.357Z,25.70
2018-04-11T05:43:46.274Z,24.57
2018-04-11T05:48:37.171Z,24.37
2018-04-11T05:53:28.856Z,24.80
2018-04-11T05:58:19.714Z,24.57
2018-04-11T06:03:10.622Z,23.03
2018-04-11T06:08:01.649Z,24.67
2018-04-11T06:12:52.581Z,25.43
2018-04-11T06:17:43.475Z,25.37
2018-04-11T06:22:34.434Z,25.27
2018-04-11T06:27:25.357Z,25.33
2018-04-11T06:32:16.258Z,24.10
2018-04-11T06:37:07.222Z,22.07
2018-04-11T06:41:58.118Z,20.20
2018-04-11T06:46:49.037Z,21.60
2018-04-11T06:51:39.994Z,20.57
2018-04-11T06:56:30.887Z,20.67
2018-04-11T07:01:21.848Z,18.90
2018-04-11T07:06:12.758Z,19.80
2018-04-11T07:11:03.655Z,17.30
2018-04-11T07:15:55.307Z,17.00
2018-04-11T07:20:47.010Z,18.60
2018-04-11T07:25:37.929Z,17.30
2018-04-11T07:30:28.815Z,16.93
2018-04-11T07:35:20.466Z,15.80
2018-04-11T07:40:11.423Z,16.77
2018-04-11T07:45:02.265Z,14.23
2018-04-11T07:49:53.167Z,13.83
2018-04-11T07:54:44.052Z,13.97
2018-04-11T07:59:34.949Z,14.40
2018-04-11T08:04:25.844Z,14.63
2018-04-11T08:09:16.741Z,11.83
2018-04-11T08:14:08.393Z,13.80
2018-04-11T08:18:59.281Z,16.30
2018-04-11T08:23:50.135Z,14.10
2018-04-11T08:28:41.777Z,16.07
2018-04-11T08:33:33.408Z,15.47
2018-04-11T08:38:24.303Z,17.13
2018-04-11T08:43:15.194Z,18.90
2018-04-11T08:48:06.079Z,17.70
2018-04-11T08:52:56.973Z,21.87
2018-04-11T08:57:47.864Z,23.10
2018-04-11T09:02:38.744Z,21.13
2018-04-11T09:07:29.658Z,19.10
2018-04-11T09:12:20.605Z,19.57
2018-04-11T09:17:11.507Z,19.93
2018-04-11T09:22:02.421Z,19.57
2018-04-11T09:26:53.325Z,19.67
2018-04-11T09:31:44.251Z,17.27
2018-04-11T09:36:35.161Z,16.63
2018-04-11T09:41:26.060Z,16.60
2018-04-11T09:46:16.946Z,19.03
2018-04-11T09:51:08.579Z,16.43
2018-04-11T09:55:59.484Z,16.07
2018-04-11T10:00:52.272Z,15.50
2018-04-11T10:05:43.177Z,15.53
2018-04-11T10:10:34.085Z,13.80
2018-04-11T10:15:24.964Z,14.23
2018-04-11T10:20:16.609Z,12.57
2018-04-11T10:25:08.270Z,13.60
2018-04-11T10:29:59.168Z,12.07
2018-04-11T10:34:50.073Z,13.53
2018-04-11T10:39:41.001Z,12.30
2018-04-11T10:44:31.898Z,13.67
2018-04-11T10:49:23.569Z,12.30
2018-04-11T10:54:14.460Z,12.70
2018-04-11T10:59:05.366Z,12.27
2018-04-11T11:03:57.026Z,15.17
2018-04-11T11:08:48.668Z,13.70
2018-04-11T11:13:40.313Z,14.77
2018-04-11T11:18:31.995Z,11.87
2018-04-11T11:23:22.893Z,12.60
2018-04-11T11:28:13.810Z,11.73
2018-04-11T11:33:04.696Z,19.00
2018-04-11T11:37:55.609Z,19.63
2018-04-11T11:42:46.515Z,19.97
2018-04-11T11:47:37.534Z,21.43
2018-04-11T11:52:29.166Z,20.43
2018-04-11T11:57:20.840Z,20.77
2018-04-11T12:02:12.469Z,22.97
2018-04-11T12:07:04.905Z,25.73
2018-04-11T12:11:55.829Z,25.37
2018-04-11T12:16:46.711Z,27.00
2018-04-11T12:21:37.603Z,28.17
2018-04-11T12:26:29.244Z,26.63
2018-04-11T12:31:20.936Z,26.50
2018-04-11T12:36:11.823Z,25.47
2018-04-11T12:41:03.520Z,22.07
2018-04-11T12:45:54.433Z,21.97
2018-04-11T12:50:45.336Z,21.00
2018-04-11T12:55:36.320Z,20.63
2018-04-11T13:00:27.237Z,20.87
2018-04-11T13:05:18.135Z,20.87
2018-04-11T13:10:09.031Z,18.73
2018-04-11T13:15:01.405Z,18.67
2018-04-11T13:19:53.067Z,22.10
2018-04-11T13:24:43.955Z,26.70
2018-04-11T13:29:34.847Z,27.17
2018-04-11T13:34:25.739Z,27.63
2018-04-11T13:39:17.384Z,27.70
2018-04-11T13:44:09.076Z,30.17
2018-04-11T13:49:00.227Z,28.30
2018-04-11T13:53:51.899Z,29.43
2018-04-11T13:58:43.554Z,24.70
2018-04-11T14:03:35.191Z,22.00
2018-04-11T14:08:26.841Z,24.23
2018-04-11T14:13:18.495Z,26.63
2018-04-11T14:18:09.384Z,26.37
2018-04-11T14:23:00.274Z,31.07
2018-04-11T14:27:51.164Z,31.40
2018-04-11T14:32:42.080Z,30.53
2018-04-11T14:37:33.719Z,30.87
2018-04-11T14:42:25.369Z,33.37
2018-04-11T14:47:16.339Z,26.77
2018-04-11T14:52:07.254Z,27.87
2018-04-11T14:56:58.156Z,26.87
2018-04-11T15:01:49.047Z,28.57
2018-04-11T15:06:39.947Z,27.93
2018-04-11T15:11:30.876Z,27.07
2018-04-11T15:16:21.775Z,31.10
2018-04-11T15:21:12.684Z,30.50
2018-04-11T15:26:03.593Z,30.90
2018-04-11T15:30:55.234Z,29.10
2018-04-11T15:35:46.131Z,30.33
2018-04-11T15:40:37.029Z,30.17
2018-04-11T15:45:27.923Z,31.60
2018-04-11T15:50:19.604Z,31.27
2018-04-11T15:55:10.503Z,32.40
2018-04-11T16:00:01.388Z,30.60
2018-04-11T16:04:52.285Z,30.80
2018-04-11T16:09:43.188Z,33.00
2018-04-11T16:14:34.071Z,30.30
2018-04-11T16:19:24.947Z,32.37
2018-04-11T16:24:15.883Z,34.97
2018-04-11T16:29:06.783Z,33.67
2018-04-11T16:33:57.685Z,35.63
2018-04-11T16:38:49.336Z,33.97
2018-04-11T16:43:40.310Z,35.57
2018-04-11T16:48:31.207Z,35.93
2018-04-11T16:53:22.100Z,33.83
2018-04-11T16:58:13.130Z,35.57
2018-04-11T17:03:04.021Z,35.43
2018-04-11T17:07:54.934Z,35.57
2018-04-11T17:12:45.837Z,36.93
2018-04-11T17:17:36.715Z,35.50
2018-04-11T17:22:40.231Z,34.93
2018-04-11T17:27:43.583Z,35.90
2018-04-11T17:32:34.469Z,37.27
2018-04-11T17:37:26.144Z,35.33
2018-04-11T17:42:17.087Z,33.33
2018-04-11T17:47:08.157Z,34.67
2018-04-11T17:51:59.056Z,34.83
2018-04-11T17:56:49.952Z,36.37
2018-04-11T18:01:40.857Z,32.93
2018-04-11T18:06:31.766Z,32.30
2018-04-11T18:11:22.668Z,31.90
2018-04-11T18:16:13.578Z,32.67
2018-04-11T18:21:04.487Z,33.07
2018-04-11T18:25:55.410Z,31.50
2018-04-11T18:30:46.321Z,29.33
2018-04-11T18:35:37.239Z,32.13
2018-04-11T18:40:28.888Z,32.30
2018-04-11T18:45:20.518Z,30.23
2018-04-11T18:50:11.484Z,32.70
2018-04-11T18:55:02.378Z,32.67
2018-04-11T18:59:53.273Z,31.47
2018-04-11T19:04:44.159Z,30.27
2018-04-11T19:09:35.807Z,32.13
2018-04-11T19:14:27.488Z,29.60
2018-04-11T19:19:18.367Z,30.53
2018-04-11T19:24:25.030Z,29.23
2018-04-11T19:29:15.916Z,29.60
2018-04-11T19:34:06.853Z,30.10
2018-04-11T19:38:57.734Z,31.63
2018-04-11T19:43:49.425Z,31.40
2018-04-11T19:48:40.351Z,31.97
2018-04-11T19:53:31.267Z,31.60
2018-04-11T19:58:22.159Z,29.83
2018-04-11T20:03:13.794Z,33.20
2018-04-11T20:08:05.442Z,30.00
2018-04-11T20:12:57.071Z,31.53
2018-04-11T20:17:47.981Z,30.37
2018-04-11T20:22:38.879Z,30.53
2018-04-11T20:27:29.775Z,31.23
2018-04-11T20:32:20.663Z,31.63
2018-04-11T20:37:11.565Z,32.10
2018-04-11T20:42:02.481Z,30.90
2018-04-11T20:46:53.525Z,32.53
2018-04-11T20:51:44.425Z,30.47
2018-04-11T20:56:36.068Z,32.53
2018-04-11T21:01:27.742Z,30.33
2018-04-11T21:06:18.646Z,31.40
2018-04-11T21:11:10.283Z,32.50
2018-04-11T21:16:01.189Z,31.87
2018-04-11T21:20:52.088Z,30.03
2018-04-11T21:25:43.739Z,32.43
2018-04-11T21:30:35.404Z,32.87
2018-04-11T21:35:26.449Z,33.27
2018-04-11T21:40:17.356Z,30.47
2018-04-11T21:45:09.000Z,30.47
2018-04-11T21:50:00.625Z,30.17
2018-04-11T21:54:51.521Z,30.27
2018-04-11T21:59:42.426Z,29.77
2018-04-11T22:04:34.065Z,29.00
2018-04-11T22:09:25.760Z,27.73
2018-04-11T22:14:16.649Z,28.50
2018-04-11T22:19:08.276Z,28.30
2018-04-11T22:23:59.182Z,27.87
2018-04-11T22:28:50.068Z,28.10
2018-04-11T22:33:41.715Z,28.83
2018-04-11T22:38:33.378Z,27.33
2018-04-11T22:43:25.075Z,26.53
2018-04-11T22:48:16.030Z,26.77
2018-04-11T22:53:06.896Z,26.83
2018-04-11T22:57:58.542Z,25.03
2018-04-11T23:02:50.180Z,27.10
2018-04-11T23:07:41.081Z,26.20
2018-04-11T23:12:31.968Z,26.30
2018-04-11T23:17:23.600Z,24.83
2018-04-11T23:22:15.292Z,25.60
2018-04-11T23:27:06.176Z,26.60
2018-04-11T23:31:57.083Z,25.93
2018-04-11T23:36:47.969Z,27.40
2018-04-11T23:41:39.614Z,25.57
2018-04-11T23:46:31.282Z,25.63
2018-04-11T23:51:22.938Z,26.90
2018-04-11T23:56:14.650Z,25.33
